Time;durP1;ratioP1;P1;durP2;ratioP2;P2;SDS_P1;SDS_P2;PMS_P1;PMS_P2;Temp;Humidity;BMP_temperature;BMP_pressure;BME280_temperature;BME280_humidity;BME280_pressure;Samples;Min_cycle;Max_cycle;Signal;HPM_P1;HPM_P2
2024/04/09 00:00:32;;;;;;;7.28;2.13;;;410.20;2227.20;;;;;;5406358;26;19996;-77
2024/04/09 00:02:58;;;;;;;5.63;2.47;;;410.20;2227.20;;;;;;5390130;26;20470;-78
2024/04/09 00:05:31;;;;;;;6.03;1.70;;;410.00;2227.20;;;;;;5410470;26;20097;-78
2024/04/09 00:08:01;;;;;;;6.22;1.90;;;409.90;2252.80;;;;;;5400713;26;20007;-78
2024/04/09 00:10:31;;;;;;;8.52;2.00;;;409.90;2278.40;;;;;;5396528;26;20016;-78
2024/04/09 00:13:00;;;;;;;6.80;2.00;;;409.80;2278.40;;;;;;5410955;26;20018;-77
2024/04/09 00:15:29;;;;;;;7.10;2.00;;;409.70;2304.00;;;;;;5404566;26;20385;-77
2024/04/09 00:17:55;;;;;;;12.00;1.80;;;409.60;2329.60;;;;;;5387537;26;20004;-78
2024/04/09 00:20:25;;;;;;;6.93;1.95;;;384.90;2329.60;;;;;;5396211;26;20000;-78
2024/04/09 00:22:54;;;;;;;8.90;2.00;;;384.90;2329.60;;;;;;5397207;26;20486;-78
2024/04/09 00:25:23;;;;;;;5.30;2.00;;;384.90;2329.60;;;;;;5392926;26;19996;-78
2024/04/09 00:27:55;;;;;;;3.70;1.80;;;384.90;2329.60;;;;;;5398405;26;20004;-78
2024/04/09 00:30:22;;;;;;;2.83;1.52;;;384.90;2329.60;;;;;;5401822;26;20036;-78
2024/04/09 00:32:51;;;;;;;5.75;1.30;;;384.90;2329.60;;;;;;5401370;26;20011;-77
2024/04/09 00:35:21;;;;;;;7.20;1.80;;;384.70;2329.60;;;;;;5404235;26;20435;-78
2024/04/09 00:37:51;;;;;;;6.38;1.75;;;384.70;2329.60;;;;;;5394255;26;20068;-77
2024/04/09 00:40:19;;;;;;;6.63;2.83;;;384.70;2329.60;;;;;;5397643;26;20343;-77
2024/04/09 00:42:49;;;;;;;4.82;3.10;;;384.70;2329.60;;;;;;5402611;26;20080;-77
2024/04/09 00:45:19;;;;;;;11.90;3.40;;;384.60;2329.60;;;;;;5396958;26;20004;-78
2024/04/09 00:47:46;;;;;;;9.05;2.42;;;384.60;2329.60;;;;;;5395512;26;20200;-78
2024/04/09 00:50:12;;;;;;;6.55;1.98;;;384.60;2329.60;;;;;;5400821;26;20446;-77
2024/04/09 00:52:46;;;;;;;6.05;2.28;;;384.60;2329.60;;;;;;5394448;26;20073;-78
2024/04/09 00:55:15;;;;;;;5.15;1.83;;;384.60;2329.60;;;;;;5399720;26;20072;-77
2024/04/09 00:57:47;;;;;;;3.97;1.80;;;384.50;2329.60;;;;;;5393334;26;20024;-77
2024/04/09 01:00:14;;;;;;;7.35;1.80;;;384.50;2329.60;;;;;;5380863;26;20007;-78
2024/04/09 01:02:41;;;;;;;6.30;1.98;;;384.50;2329.60;;;;;;5408478;26;20011;-77
2024/04/09 01:05:08;;;;;;;7.35;2.03;;;384.50;2329.60;;;;;;5402832;26;20022;-77
2024/04/09 01:07:35;;;;;;;5.65;1.70;;;384.40;2329.60;;;;;;5383530;26;20000;-77
2024/04/09 01:10:01;;;;;;;11.60;1.90;;;384.50;2329.60;;;;;;5398104;26;20004;-77
2024/04/09 01:12:26;;;;;;;4.65;1.60;;;384.50;2329.60;;;;;;5399666;26;20004;-77
2024/04/09 01:14:52;;;;;;;10.25;2.03;;;384.60;2329.60;;;;;;5395847;26;20007;-77
2024/04/09 01:17:19;;;;;;;6.72;2.10;;;384.50;2329.60;;;;;;5415302;26;20007;-77
2024/04/09 01:19:46;;;;;;;6.05;2.38;;;384.50;2329.60;;;;;;5416677;26;19991;-77
2024/04/09 01:22:12;;;;;;;3.85;1.55;;;384.50;2329.60;;;;;;5417711;26;20011;-77
2024/04/09 01:24:39;;;;;;;10.95;1.90;;;384.50;2329.60;;;;;;5391878;26;20398;-77
2024/04/09 01:27:05;;;;;;;4.72;1.75;;;384.50;2329.60;;;;;;5409854;26;20442;-78
2024/04/09 01:29:32;;;;;;;4.22;1.60;;;384.50;2329.60;;;;;;5396988;26;20015;-77
2024/04/09 01:31:58;;;;;;;5.22;1.83;;;384.50;2329.60;;;;;;5382286;26;20004;-77
2024/04/09 01:34:24;;;;;;;12.88;2.08;;;384.60;2329.60;;;;;;5382475;26;20008;-77
2024/04/09 01:36:50;;;;;;;5.25;1.83;;;384.50;2329.60;;;;;;5382195;26;19996;-78
2024/04/09 01:39:15;;;;;;;5.82;2.33;;;384.60;2329.60;;;;;;5380295;26;20068;-77
2024/04/09 01:41:42;;;;;;;9.68;1.90;;;384.60;2329.60;;;;;;5409813;26;20012;-77
2024/04/09 01:44:10;;;;;;;6.25;1.60;;;384.50;2329.60;;;;;;5381786;26;20004;-77
2024/04/09 01:46:37;;;;;;;5.78;2.47;;;384.60;2329.60;;;;;;5380467;26;20008;-78
2024/04/09 01:49:04;;;;;;;5.97;1.88;;;384.60;2329.60;;;;;;5382366;26;20424;-78
2024/04/09 01:51:30;;;;;;;7.80;1.77;;;384.50;2329.60;;;;;;5409870;26;20332;-77
2024/04/09 01:53:56;;;;;;;3.72;1.50;;;384.50;2329.60;;;;;;5382105;26;20012;-77
2024/04/09 01:56:21;;;;;;;15.68;2.33;;;384.40;2329.60;;;;;;5381632;26;20431;-77
2024/04/09 01:58:47;;;;;;;7.13;1.70;;;384.50;2329.60;;;;;;5380048;26;20004;-78
2024/04/09 02:01:14;;;;;;;7.40;1.85;;;384.50;2329.60;;;;;;5403618;26;20014;-77
2024/04/09 02:03:40;;;;;;;5.32;1.80;;;384.50;2329.60;;;;;;5415325;26;20335;-77
2024/04/09 02:06:07;;;;;;;2.88;1.50;;;384.50;2329.60;;;;;;5413789;26;20004;-77
2024/04/09 02:08:37;;;;;;;6.13;1.88;;;384.40;2329.60;;;;;;5416959;26;20014;-77
2024/04/09 02:11:05;;;;;;;5.22;1.80;;;384.40;2329.60;;;;;;5416956;26;20004;-76
2024/04/09 02:13:31;;;;;;;2.67;1.40;;;384.40;2329.60;;;;;;5392276;26;20343;-77
2024/04/09 02:16:09;;;;;;;5.20;1.88;;;384.40;2329.60;;;;;;5414781;26;20014;-78
2024/04/09 02:18:36;;;;;;;6.57;1.80;;;384.50;2329.60;;;;;;5417302;26;19996;-77
2024/04/09 02:21:06;;;;;;;2.63;1.63;;;384.40;2329.60;;;;;;5416194;26;20011;-77
2024/04/09 02:23:36;;;;;;;8.50;1.90;;;384.40;2329.60;;;;;;5416148;26;19995;-77
2024/04/09 02:26:02;;;;;;;3.47;1.63;;;384.40;2329.60;;;;;;5415339;26;20064;-77
2024/04/09 02:28:28;;;;;;;5.03;1.60;;;384.50;2329.60;;;;;;5418200;26;20003;-77
2024/04/09 02:30:55;;;;;;;2.42;1.35;;;384.40;2329.60;;;;;;5418027;26;20006;-77
2024/04/09 02:33:21;;;;;;;5.75;1.85;;;384.50;2329.60;;;;;;5412598;26;19996;-77
2024/04/09 02:35:56;;;;;;;5.95;1.70;;;384.40;2329.60;;;;;;5411875;26;20072;-77
2024/04/09 02:38:24;;;;;;;10.38;1.60;;;384.40;2329.60;;;;;;5420402;26;20036;-77
2024/04/09 02:40:50;;;;;;;2.13;1.30;;;384.40;2329.60;;;;;;5417891;26;20458;-77
2024/04/09 02:43:16;;;;;;;7.78;1.77;;;384.50;2329.60;;;;;;5418401;26;19999;-77
2024/04/09 02:45:42;;;;;;;4.35;1.85;;;384.50;2329.60;;;;;;5420153;26;20463;-77
2024/04/09 02:48:08;;;;;;;3.10;1.50;;;384.50;2329.60;;;;;;5448377;26;19996;-77
2024/04/09 02:50:34;;;;;;;5.18;1.20;;;384.50;2329.60;;;;;;5419762;26;19996;-77
2024/04/09 02:53:00;;;;;;;2.60;1.60;;;384.50;2329.60;;;;;;5420013;26;20430;-77
2024/04/09 02:55:41;;;;;;;3.03;1.33;;;384.50;2329.60;;;;;;5419438;26;20007;-77
2024/04/09 02:58:07;;;;;;;2.60;1.25;;;384.40;2329.60;;;;;;5420007;26;20010;-77
2024/04/09 03:00:33;;;;;;;5.05;1.80;;;384.50;2329.60;;;;;;5412154;26;20004;-77
2024/04/09 03:02:59;;;;;;;6.32;1.75;;;384.40;2329.60;;;;;;5402329;26;20004;-77
2024/04/09 03:05:29;;;;;;;3.75;1.35;;;384.30;2329.60;;;;;;5418275;26;20014;-78
2024/04/09 03:07:55;;;;;;;2.38;1.25;;;384.20;2329.60;;;;;;5420005;26;20007;-77
2024/04/09 03:10:21;;;;;;;4.65;1.30;;;384.30;2329.60;;;;;;5417847;26;20447;-77
2024/04/09 03:12:48;;;;;;;3.60;1.38;;;384.30;2329.60;;;;;;5416827;26;20010;-77
2024/04/09 03:15:14;;;;;;;2.35;1.33;;;384.20;2329.60;;;;;;5412159;26;20050;-77
2024/04/09 03:17:43;;;;;;;5.85;1.38;;;384.10;2329.60;;;;;;5408544;26;20023;-77
2024/04/09 03:20:10;;;;;;;3.13;1.67;;;384.10;2329.60;;;;;;5419909;26;20353;-77
2024/04/09 03:22:37;;;;;;;3.00;1.30;;;384.10;2329.60;;;;;;5416546;26;20004;-77
2024/04/09 03:25:03;;;;;;;3.05;1.40;;;384.10;2329.60;;;;;;5417752;26;19995;-77
2024/04/09 03:27:29;;;;;;;8.90;2.25;;;384.10;2329.60;;;;;;5414924;26;20007;-77
2024/04/09 03:29:56;;;;;;;4.13;1.70;;;384.00;2329.60;;;;;;5419841;26;19996;-76
2024/04/09 03:32:23;;;;;;;3.03;1.30;;;384.00;2329.60;;;;;;5417281;26;20023;-76
2024/04/09 03:34:49;;;;;;;1.48;1.08;;;384.00;2329.60;;;;;;5418047;26;20035;-75
2024/04/09 03:37:15;;;;;;;4.45;1.50;;;359.30;2329.60;;;;;;5418758;26;20011;-75
2024/04/09 03:39:41;;;;;;;3.72;1.50;;;359.20;2329.60;;;;;;5419374;26;20010;-75
2024/04/09 03:42:07;;;;;;;2.10;1.23;;;359.20;2329.60;;;;;;5418588;26;20007;-76
2024/04/09 03:44:33;;;;;;;6.22;1.58;;;359.00;2329.60;;;;;;5412000;26;19997;-75
2024/04/09 03:47:03;;;;;;;5.07;1.42;;;359.00;2329.60;;;;;;5410603;26;20019;-75
2024/04/09 03:49:36;;;;;;;5.25;1.90;;;358.90;2329.60;;;;;;5419533;26;19991;-75
2024/04/09 03:52:03;;;;;;;4.75;1.40;;;359.00;2329.60;;;;;;5419289;26;20002;-74
2024/04/09 03:54:29;;;;;;;1.55;0.98;;;359.00;2329.60;;;;;;5418957;26;19999;-76
2024/04/09 03:56:55;;;;;;;4.35;1.80;;;359.00;2329.60;;;;;;5419082;26;20011;-75
2024/04/09 03:59:21;;;;;;;3.40;1.35;;;359.00;2329.60;;;;;;5418975;26;20004;-76
2024/04/09 04:01:47;;;;;;;2.60;1.10;;;359.10;2329.60;;;;;;5395239;26;20006;-75
2024/04/09 04:04:14;;;;;;;3.90;1.60;;;359.10;2329.60;;;;;;5419088;26;19999;-75
2024/04/09 04:06:40;;;;;;;4.72;1.60;;;359.20;2329.60;;;;;;5418738;26;20003;-75
2024/04/09 04:09:08;;;;;;;3.40;1.20;;;359.20;2329.60;;;;;;5411242;26;20058;-76
2024/04/09 04:11:35;;;;;;;3.00;1.42;;;384.00;2329.60;;;;;;5414993;26;19995;-75
2024/04/09 04:14:01;;;;;;;2.80;1.27;;;384.00;2329.60;;;;;;5417292;26;20334;-76
2024/04/09 04:16:27;;;;;;;2.08;1.10;;;384.10;2329.60;;;;;;5418638;26;20027;-75
2024/04/09 04:18:53;;;;;;;1.83;1.00;;;384.10;2329.60;;;;;;5418692;26;19995;-76
2024/04/09 04:21:21;;;;;;;1.58;1.10;;;384.20;2329.60;;;;;;5418515;26;20443;-75
2024/04/09 04:23:54;;;;;;;3.08;1.45;;;384.10;2329.60;;;;;;5416697;26;20323;-75
2024/04/09 04:26:21;;;;;;;9.00;1.77;;;384.20;2329.60;;;;;;5418615;26;20039;-76
2024/04/09 04:28:47;;;;;;;6.03;1.58;;;384.20;2329.60;;;;;;5418744;26;20014;-76
2024/04/09 04:31:17;;;;;;;9.32;1.67;;;384.40;2329.60;;;;;;5418234;26;20023;-75
2024/04/09 04:33:43;;;;;;;12.32;1.58;;;384.50;2329.60;;;;;;5417133;26;20004;-76
2024/04/09 04:36:13;;;;;;;7.70;1.60;;;384.60;2329.60;;;;;;5416210;26;20003;-75
2024/04/09 04:38:43;;;;;;;4.55;1.42;;;384.70;2329.60;;;;;;5416540;26;20417;-76
2024/04/09 04:41:09;;;;;;;2.95;1.13;;;384.90;2329.60;;;;;;5418185;26;19992;-75
2024/04/09 04:43:36;;;;;;;4.15;1.20;;;409.60;2355.20;;;;;;5418136;26;20018;-76
2024/04/09 04:46:04;;;;;;;4.72;1.30;;;409.70;2329.60;;;;;;5418612;26;20462;-75
2024/04/09 04:48:30;;;;;;;1.98;1.02;;;409.90;2278.40;;;;;;5417029;26;20443;-75
2024/04/09 04:50:56;;;;;;;5.05;1.25;;;410.10;2252.80;;;;;;5418507;26;20004;-75
2024/04/09 04:53:22;;;;;;;2.40;1.23;;;410.20;2227.20;;;;;;5417926;26;20000;-75
2024/04/09 04:55:52;;;;;;;1.63;1.00;;;410.30;2227.20;;;;;;5410707;26;19992;-75
2024/04/09 04:58:21;;;;;;;20.52;2.53;;;410.40;2201.60;;;;;;5409019;26;20008;-76
2024/04/09 05:00:47;;;;;;;2.42;1.20;;;410.50;2201.60;;;;;;5418141;26;19999;-76
2024/04/09 05:03:13;;;;;;;5.00;1.23;;;410.50;2176.00;;;;;;5416186;26;19999;-75
2024/04/09 05:05:39;;;;;;;3.67;1.63;;;435.30;2176.00;;;;;;5418217;26;19999;-76
2024/04/09 05:08:05;;;;;;;2.75;1.30;;;435.30;2124.80;;;;;;5418025;26;20019;-75
2024/04/09 05:10:31;;;;;;;1.75;1.10;;;435.40;2099.20;;;;;;5417980;26;20439;-76
2024/04/09 05:12:57;;;;;;;1.90;1.02;;;435.50;2124.80;;;;;;5417130;26;20015;-75
2024/04/09 05:15:24;;;;;;;2.13;1.25;;;435.50;2099.20;;;;;;5415753;26;19995;-76
2024/04/09 05:17:51;;;;;;;6.90;1.17;;;435.60;2099.20;;;;;;5417629;26;20010;-76
2024/04/09 05:20:18;;;;;;;11.68;1.90;;;435.60;2099.20;;;;;;5416129;26;20010;-76
2024/04/09 05:22:45;;;;;;;5.38;1.38;;;435.50;2099.20;;;;;;5415037;26;20494;-76
2024/04/09 05:25:12;;;;;;;2.88;0.90;;;435.70;2073.60;;;;;;5417774;26;20076;-76
2024/04/09 05:27:39;;;;;;;2.30;1.27;;;435.80;2099.20;;;;;;5415428;26;20009;-77
2024/04/09 05:30:06;;;;;;;1.83;1.13;;;435.80;2073.60;;;;;;5415761;26;20090;-77
2024/04/09 05:32:38;;;;;;;2.05;1.10;;;435.90;2048.00;;;;;;5406635;26;19992;-75
2024/04/09 05:35:04;;;;;;;6.10;1.55;;;435.90;2048.00;;;;;;5403784;26;20013;-75
2024/04/09 05:37:31;;;;;;;6.35;1.52;;;435.90;2073.60;;;;;;5399696;26;20000;-74
2024/04/09 05:40:00;;;;;;;3.97;1.30;;;435.90;2048.00;;;;;;5402894;26;20016;-75
2024/04/09 05:42:26;;;;;;;3.25;1.67;;;436.00;2048.00;;;;;;5390849;26;20004;-77
2024/04/09 05:44:52;;;;;;;4.20;1.38;;;436.00;2073.60;;;;;;5389098;26;20000;-76
2024/04/09 05:47:18;;;;;;;3.65;1.30;;;436.00;2099.20;;;;;;5399594;26;20435;-76
2024/04/09 05:49:45;;;;;;;2.45;1.25;;;436.10;2073.60;;;;;;5403669;26;19996;-78
2024/04/09 05:52:11;;;;;;;4.90;1.33;;;460.80;2124.80;;;;;;5410511;26;20022;-76
2024/04/09 05:54:43;;;;;;;4.00;1.23;;;460.80;2124.80;;;;;;5407461;26;20000;-76
2024/04/09 05:57:11;;;;;;;5.55;1.80;;;460.90;2099.20;;;;;;5393185;26;20008;-76
2024/04/09 05:59:37;;;;;;;3.88;1.30;;;460.90;2124.80;;;;;;5399528;26;20010;-77
2024/04/09 06:02:03;;;;;;;7.97;1.65;;;461.00;2099.20;;;;;;5405339;26;19996;-77
2024/04/09 06:04:30;;;;;;;2.40;1.50;;;461.10;2099.20;;;;;;5385371;26;20061;-78
2024/04/09 06:06:56;;;;;;;7.40;1.65;;;461.10;2124.80;;;;;;5403477;26;19995;-78
2024/04/09 06:09:22;;;;;;;3.78;1.30;;;461.20;2099.20;;;;;;5395382;26;20493;-77
2024/04/09 06:11:48;;;;;;;4.22;1.23;;;461.20;2073.60;;;;;;5399842;26;19988;-77
2024/04/09 06:14:15;;;;;;;5.32;2.08;;;461.30;2099.20;;;;;;5401223;26;20014;-77
2024/04/09 06:16:41;;;;;;;3.85;1.58;;;461.40;2073.60;;;;;;5394388;26;20004;-76
2024/04/09 06:19:07;;;;;;;4.75;1.48;;;461.40;2073.60;;;;;;5397018;26;20001;-76
2024/04/09 06:21:33;;;;;;;2.42;1.25;;;461.40;2048.00;;;;;;5400137;26;20031;-77
2024/04/09 06:23:58;;;;;;;3.83;1.35;;;461.50;2048.00;;;;;;5415783;26;19996;-76
2024/04/09 06:26:24;;;;;;;2.17;1.33;;;461.70;2048.00;;;;;;5417717;26;19996;-75
2024/04/09 06:28:51;;;;;;;4.80;1.27;;;486.40;2048.00;;;;;;5406013;26;20011;-78
2024/04/09 06:31:17;;;;;;;4.03;1.92;;;486.50;2022.40;;;;;;5396912;26;20077;-76
2024/04/09 06:33:46;;;;;;;6.07;1.63;;;486.50;1996.80;;;;;;5395717;26;20324;-75
2024/04/09 06:36:12;;;;;;;6.38;2.40;;;486.60;1996.80;;;;;;5392624;26;20000;-75
2024/04/09 06:38:38;;;;;;;4.22;1.48;;;486.70;1996.80;;;;;;5392345;26;19996;-75
2024/04/09 06:41:05;;;;;;;3.35;1.17;;;486.80;1996.80;;;;;;5410955;26;20443;-75
2024/04/09 06:43:31;;;;;;;5.78;1.60;;;486.90;1971.20;;;;;;5399678;26;20094;-75
2024/04/09 06:45:57;;;;;;;6.32;1.40;;;487.00;1971.20;;;;;;5402252;26;20008;-76
2024/04/09 06:48:23;;;;;;;2.70;1.20;;;487.10;1920.00;;;;;;5397278;26;20336;-73
2024/04/09 06:50:50;;;;;;;2.60;1.15;;;487.20;1920.00;;;;;;5399108;26;20049;-75
2024/04/09 06:53:16;;;;;;;5.55;1.92;;;512.10;1971.20;;;;;;5402272;26;20002;-73
2024/04/09 06:55:43;;;;;;;5.43;1.10;;;512.40;1894.40;;;;;;5401039;26;20000;-77
2024/04/09 06:58:11;;;;;;;2.25;1.30;;;512.70;1894.40;;;;;;5406530;26;19995;-74
2024/04/09 07:00:36;;;;;;;6.28;1.27;;;512.50;1868.80;;;;;;5415920;26;20008;-74
2024/04/09 07:03:04;;;;;;;5.00;1.40;;;537.70;1894.40;;;;;;5388249;26;20066;-74
2024/04/09 07:05:31;;;;;;;4.03;1.30;;;537.70;1843.20;;;;;;5394190;26;20015;-74
2024/04/09 07:08:00;;;;;;;4.85;1.52;;;537.90;1792.00;;;;;;5393331;26;20024;-74
2024/04/09 07:10:27;;;;;;;3.40;1.58;;;538.10;1766.40;;;;;;5400441;26;20001;-74
2024/04/09 07:12:54;;;;;;;7.15;2.53;;;538.20;1766.40;;;;;;5403819;26;20011;-75
2024/04/09 07:15:26;;;;;;;4.13;1.05;;;538.50;1740.80;;;;;;5393099;26;19995;-74
2024/04/09 07:17:56;;;;;;;4.30;2.08;;;538.50;1664.00;;;;;;5399946;26;20011;-74
2024/04/09 07:20:23;;;;;;;10.55;1.65;;;563.30;1715.20;;;;;;5411528;26;19992;-74
2024/04/09 07:22:49;;;;;;;6.97;1.30;;;563.40;1689.60;;;;;;5392065;26;20466;-74
2024/04/09 07:25:15;;;;;;;6.18;1.70;;;563.60;1638.40;;;;;;5404392;26;19992;-73
2024/04/09 07:27:42;;;;;;;4.95;1.50;;;563.60;1664.00;;;;;;5394433;26;20001;-73
2024/04/09 07:30:09;;;;;;;4.18;1.58;;;563.60;1638.40;;;;;;5406382;26;20075;-74
2024/04/09 07:32:35;;;;;;;5.72;1.80;;;564.10;1638.40;;;;;;5399051;26;20004;-74
2024/04/09 07:35:01;;;;;;;6.35;1.42;;;563.90;1638.40;;;;;;5405945;26;20000;-75
2024/04/09 07:37:27;;;;;;;6.55;1.85;;;564.10;1612.80;;;;;;5390063;26;20004;-74
2024/04/09 07:39:52;;;;;;;7.22;1.63;;;564.10;1587.20;;;;;;5406339;26;20327;-75
2024/04/09 07:42:18;;;;;;;2.63;1.70;;;564.10;1587.20;;;;;;5407899;26;19996;-76
2024/04/09 07:44:44;;;;;;;6.05;2.05;;;564.10;1587.20;;;;;;5396574;26;19996;-73
2024/04/09 07:47:11;;;;;;;9.23;2.70;;;564.10;1587.20;;;;;;5412375;26;20003;-76
2024/04/09 07:49:37;;;;;;;3.63;2.10;;;588.90;1612.80;;;;;;5406028;26;20018;-75
2024/04/09 07:52:06;;;;;;;6.20;2.22;;;588.90;1561.60;;;;;;5400751;26;20007;-75
2024/04/09 07:54:32;;;;;;;4.82;1.83;;;589.20;1536.00;;;;;;5402659;26;20003;-75
2024/04/09 07:56:58;;;;;;;4.40;1.83;;;589.30;1536.00;;;;;;5412421;26;20032;-73
2024/04/09 07:59:24;;;;;;;8.35;1.85;;;589.50;1536.00;;;;;;5392721;26;20010;-75
2024/04/09 08:01:52;;;;;;;9.13;1.95;;;589.60;1536.00;;;;;;5394487;26;20002;-73
2024/04/09 08:04:18;;;;;;;6.43;2.20;;;614.40;1510.40;;;;;;5397299;26;20080;-73
2024/04/09 08:06:44;;;;;;;9.57;1.80;;;614.50;1484.80;;;;;;5394049;26;20034;-74
2024/04/09 08:09:11;;;;;;;4.47;2.05;;;614.60;1459.20;;;;;;5395965;26;20031;-75
2024/04/09 08:11:41;;;;;;;5.72;2.05;;;614.70;1484.80;;;;;;5401820;26;20069;-75
2024/04/09 08:14:11;;;;;;;7.40;1.70;;;614.70;1433.60;;;;;;5401721;26;20015;-74
2024/04/09 08:16:38;;;;;;;8.18;2.00;;;614.90;1459.20;;;;;;5404311;26;19995;-75
2024/04/09 08:19:04;;;;;;;4.38;2.20;;;615.10;1459.20;;;;;;5399358;26;20019;-75
2024/04/09 08:21:31;;;;;;;8.63;2.63;;;615.10;1408.00;;;;;;5404457;26;20068;-73
2024/04/09 08:23:57;;;;;;;6.68;2.15;;;615.10;1408.00;;;;;;5407859;26;20008;-75
2024/04/09 08:26:23;;;;;;;6.50;1.92;;;615.30;1408.00;;;;;;5388547;26;20497;-74
2024/04/09 08:28:52;;;;;;;6.05;2.40;;;615.20;1408.00;;;;;;5392112;26;20004;-77
2024/04/09 08:31:33;;;;;;;29.92;7.47;;;615.20;1408.00;;;;;;5398920;26;20041;-75
2024/04/09 08:34:00;;;;;;;16.50;3.92;;;640.20;1433.60;;;;;;5401160;26;19999;-74
2024/04/09 08:36:27;;;;;;;11.27;3.15;;;;;;;;;;5388315;26;20000;-75
2024/04/09 08:38:53;;;;;;;169.48;31.80;;;665.80;1382.40;;;;;;5388957;26;20110;-75
2024/04/09 08:41:20;;;;;;;9.18;2.90;;;665.90;1356.80;;;;;;5395187;26;20001;-76
2024/04/09 08:43:48;;;;;;;14.23;4.82;;;666.20;1331.20;;;;;;5404930;26;20011;-74
2024/04/09 08:46:14;;;;;;;88.38;14.52;;;666.20;1331.20;;;;;;5389521;26;21244;-75
2024/04/09 08:48:40;;;;;;;10.85;4.40;;;666.20;1331.20;;;;;;5399968;26;20008;-75
2024/04/09 08:51:10;;;;;;;11.50;3.47;;;666.00;1331.20;;;;;;5400322;26;20004;-77
2024/04/09 08:53:38;;;;;;;8.45;3.03;;;666.30;1356.80;;;;;;5399688;26;20000;-74
2024/04/09 08:56:07;;;;;;;4.97;2.83;;;666.30;1331.20;;;;;;5401766;26;20036;-77
2024/04/09 08:58:32;;;;;;;8.88;2.92;;;691.30;1305.60;;;;;;5401901;26;19995;-73
2024/04/09 09:00:59;;;;;;;13.20;4.28;;;691.40;1331.20;;;;;;5414249;26;20014;-75
2024/04/09 09:03:25;;;;;;;6.15;2.92;;;691.70;1254.40;;;;;;5385341;26;20509;-73
2024/04/09 09:06:01;;;;;;;9.75;2.70;;;691.80;1305.60;;;;;;5395866;26;19996;-76
2024/04/09 09:08:43;;;;;;;6.53;2.85;;;691.80;1254.40;;;;;;5390119;26;20001;-74
2024/04/09 09:11:10;;;;;;;6.22;2.90;;;691.80;1280.00;;;;;;5393641;26;20008;-74
2024/04/09 09:13:35;;;;;;;5.82;2.92;;;691.90;1254.40;;;;;;5392555;26;20004;-76
2024/04/09 09:16:02;;;;;;;5.93;2.75;;;692.00;1280.00;;;;;;5398599;26;19999;-74
2024/04/09 09:18:28;;;;;;;7.65;3.10;;;692.00;1280.00;;;;;;5397734;26;20011;-76
2024/04/09 09:21:00;;;;;;;6.78;2.70;;;691.80;1305.60;;;;;;5386460;26;20015;-76
2024/04/09 09:23:26;;;;;;;14.50;4.18;;;691.90;1280.00;;;;;;5397819;26;19996;-74
2024/04/09 09:25:52;;;;;;;8.20;2.85;;;692.00;1305.60;;;;;;5403498;26;20003;-74
2024/04/09 09:28:22;;;;;;;8.07;3.22;;;692.10;1280.00;;;;;;5386585;26;20004;-76
2024/04/09 09:30:48;;;;;;;11.25;2.80;;;717.20;1280.00;;;;;;5400090;26;19999;-75
2024/04/09 09:33:20;;;;;;;6.65;2.88;;;717.30;1305.60;;;;;;5395792;26;19996;-74
2024/04/09 09:35:50;;;;;;;5.80;2.90;;;717.10;1254.40;;;;;;5401081;26;20314;-75
2024/04/09 09:38:17;;;;;;;7.72;2.65;;;717.10;1228.80;;;;;;5400921;26;20099;-74
2024/04/09 09:40:48;;;;;;;9.25;2.97;;;692.10;1203.20;;;;;;5398990;26;20439;-77
2024/04/09 09:43:24;;;;;;;7.72;3.22;;;717.40;1254.40;;;;;;5397240;26;20004;-75
2024/04/09 09:45:50;;;;;;;7.40;2.90;;;717.40;1280.00;;;;;;5402437;26;20044;-75
2024/04/09 09:48:21;;;;;;;9.50;3.65;;;717.40;1254.40;;;;;;5387389;26;20011;-74
2024/04/09 09:50:47;;;;;;;12.23;3.30;;;717.70;1254.40;;;;;;5394241;26;20006;-75
2024/04/09 09:53:13;;;;;;;10.57;2.80;;;717.40;1254.40;;;;;;5397703;26;20004;-75
2024/04/09 09:55:42;;;;;;;8.80;3.25;;;742.80;1203.20;;;;;;5382492;26;20004;-76
2024/04/09 09:58:13;;;;;;;8.15;3.22;;;742.80;1203.20;;;;;;5385714;26;20423;-74
2024/04/09 10:00:40;;;;;;;10.38;3.00;;;743.00;1177.60;;;;;;5387497;26;19996;-77
2024/04/09 10:03:06;;;;;;;8.82;2.88;;;743.10;1203.20;;;;;;5409759;26;20011;-74
2024/04/09 10:05:34;;;;;;;7.57;2.90;;;743.20;1177.60;;;;;;5401127;26;20000;-74
2024/04/09 10:08:16;;;;;;;13.57;3.45;;;743.10;1177.60;;;;;;5394503;26;20032;-75
2024/04/09 10:10:42;;;;;;;9.43;2.97;;;743.30;1203.20;;;;;;5410185;26;19991;-75
2024/04/09 10:13:09;;;;;;;4.30;2.60;;;768.00;1177.60;;;;;;5401429;26;20010;-77
2024/04/09 10:15:43;;;;;;;5.50;2.90;;;743.30;1177.60;;;;;;5402568;26;19991;-74
2024/04/09 10:18:09;;;;;;;10.35;2.97;;;768.40;1126.40;;;;;;5384769;26;20077;-76
2024/04/09 10:20:38;;;;;;;8.63;3.05;;;768.40;1126.40;;;;;;5381589;26;20407;-76
2024/04/09 10:23:05;;;;;;;9.40;3.28;;;768.50;1126.40;;;;;;5386732;26;20420;-76
2024/04/09 10:25:36;;;;;;;7.20;2.92;;;768.20;1126.40;;;;;;5387282;26;20011;-76
2024/04/09 10:28:06;;;;;;;7.10;2.80;;;768.30;1126.40;;;;;;5394373;26;19992;-75
2024/04/09 10:30:33;;;;;;;6.63;2.53;;;768.60;1152.00;;;;;;5394209;26;19996;-78
2024/04/09 10:33:01;;;;;;;5.85;2.75;;;768.70;1126.40;;;;;;5393455;26;20011;-76
2024/04/09 10:35:28;;;;;;;5.18;2.75;;;793.70;1126.40;;;;;;5409053;26;20007;-75
2024/04/09 10:37:55;;;;;;;9.25;3.00;;;794.00;1100.80;;;;;;5399177;26;20427;-75
2024/04/09 10:40:22;;;;;;;5.85;2.53;;;794.20;1075.20;;;;;;5388459;26;20007;-78
2024/04/09 10:42:48;;;;;;;5.95;3.28;;;793.80;1100.80;;;;;;5398334;26;20082;-76
2024/04/09 10:45:15;;;;;;;6.40;2.88;;;794.00;1075.20;;;;;;5401133;26;20031;-75
2024/04/09 10:47:43;;;;;;;6.90;2.80;;;793.90;1100.80;;;;;;5395935;26;20004;-75
2024/04/09 10:50:08;;;;;;;8.13;2.55;;;793.90;1100.80;;;;;;5392782;26;20432;-77
2024/04/09 10:52:35;;;;;;;7.20;2.95;;;794.00;1100.80;;;;;;5406377;26;19999;-76
2024/04/09 10:55:11;;;;;;;9.82;3.13;;;794.10;1126.40;;;;;;5397240;26;20014;-74
2024/04/09 10:57:37;;;;;;;8.00;3.05;;;794.30;1100.80;;;;;;5387291;26;19996;-74
2024/04/09 11:00:11;;;;;;;6.93;3.10;;;794.00;1100.80;;;;;;5400194;26;20004;-73
2024/04/09 11:02:41;;;;;;;6.28;3.25;;;794.20;1049.60;;;;;;5403372;26;20325;-74
2024/04/09 11:05:11;;;;;;;5.32;2.70;;;794.50;1049.60;;;;;;5407852;26;20114;-74
2024/04/09 11:07:44;;;;;;;9.23;2.70;;;794.50;1075.20;;;;;;5393958;26;19992;-74
2024/04/09 11:10:17;;;;;;;5.70;2.88;;;794.50;1049.60;;;;;;5409322;26;20027;-74
2024/04/09 11:12:53;;;;;;;5.88;2.58;;;794.50;1075.20;;;;;;5390525;26;19996;-75
2024/04/09 11:15:20;;;;;;;6.05;2.60;;;819.30;1049.60;;;;;;5409550;26;19996;-73
2024/04/09 11:17:46;;;;;;;11.18;3.20;;;794.50;1075.20;;;;;;5395688;26;20006;-76
2024/04/09 11:20:18;;;;;;;11.98;3.35;;;819.30;1075.20;;;;;;5406555;26;20424;-77
2024/04/09 11:22:49;;;;;;;7.40;2.92;;;819.20;1075.20;;;;;;5405458;26;20089;-74
2024/04/09 11:25:17;;;;;;;10.93;3.08;;;819.20;1100.80;;;;;;5394766;26;20010;-73
2024/04/09 11:27:47;;;;;;;5.63;2.53;;;794.50;1100.80;;;;;;5390056;26;20054;-74
2024/04/09 11:30:24;;;;;;;5.22;2.67;;;794.50;1049.60;;;;;;5410288;26;19996;-74
2024/04/09 11:32:55;;;;;;;4.80;2.72;;;819.30;1049.60;;;;;;5391975;26;20000;-74
2024/04/09 11:35:23;;;;;;;7.85;2.95;;;819.30;1024.00;;;;;;5411474;26;20045;-74
2024/04/09 11:37:56;;;;;;;8.73;3.17;;;819.20;1024.00;;;;;;5394453;26;20000;-73
2024/04/09 11:40:24;;;;;;;5.97;2.63;;;819.70;972.80;;;;;;5407383;26;20008;-75
2024/04/09 11:42:50;;;;;;;5.85;2.63;;;819.60;972.80;;;;;;5398608;26;20022;-75
2024/04/09 11:45:20;;;;;;;4.25;2.47;;;819.80;998.40;;;;;;5387471;26;19988;-76
2024/04/09 11:47:46;;;;;;;10.50;3.35;;;819.80;998.40;;;;;;5402557;26;20000;-75
2024/04/09 11:50:12;;;;;;;10.63;3.22;;;820.10;998.40;;;;;;5402257;26;20304;-73
2024/04/09 11:52:38;;;;;;;5.07;2.45;;;819.90;1024.00;;;;;;5387253;26;20032;-75
2024/04/09 11:55:04;;;;;;;6.38;2.88;;;819.30;1049.60;;;;;;5399944;26;19993;-74
2024/04/09 11:57:30;;;;;;;6.18;2.97;;;819.50;1024.00;;;;;;5393641;26;20004;-73
2024/04/09 11:59:56;;;;;;;7.15;2.95;;;819.90;998.40;;;;;;5393957;26;20003;-73
2024/04/09 12:02:23;;;;;;;7.20;2.70;;;794.50;1024.00;;;;;;5409425;26;20037;-73
2024/04/09 12:04:48;;;;;;;11.02;3.40;;;819.30;1049.60;;;;;;5384933;26;20454;-74
2024/04/09 12:07:14;;;;;;;8.73;2.63;;;819.40;1024.00;;;;;;5403923;26;19991;-74
2024/04/09 12:09:40;;;;;;;6.07;2.63;;;819.80;998.40;;;;;;5391496;26;20019;-73
2024/04/09 12:12:08;;;;;;;8.35;2.60;;;819.60;1024.00;;;;;;5394150;26;20377;-74
2024/04/09 12:14:37;;;;;;;12.07;2.58;;;819.80;998.40;;;;;;5394098;26;20000;-75
2024/04/09 12:17:05;;;;;;;9.27;3.00;;;819.70;1024.00;;;;;;5401656;26;20045;-75